Etusivu
METAR-TAF:

METAR-TAF

Lentoasemat :

Stanton County, Kansas, Yhdysvallat

Leveyspiiri: 37-35-07N, Pituuspiiri: 101-43-56W, korkeus merenpinnasta: 1013 m

Tämänhetkinen sää

Tämä raportti tehtiin 28 minuuttia sitten, kello 12.35 UTC
Tuuli 10 kn idästä/koillisesta puuskistuen 15 kn:hen
Lämpötila 17°C
Kosteus 100%
Ilmanpaine 1020 hPa
Näkyvyys: 16.1 km
Hajonneita pilviä 400 ft:n korkeudessa
Hajonneita pilviä 900 ft:n korkeudessa
Pilvistä 1800 ft:n korkeudessa
heikkoa sadetta

METAR: KJHN 191235Z AUTO 07010G15KT 10SM -RA BKN004 BKN009 OVC018 17/17 A3013 RMK AO2 LTG DSNT SE AND S P0001 T01730170

Aika: 08:03 (13:03 UTC)


TAF: puuttuu

Säähavainnot ja -ennusteet yli 4000 lentoasemalta (METAR- ja TAF-raportit).

Käytössä olevat sääasemat on merkitty karttaan keltaisilla ja punaisilla pisteillä.

Aseta hiiri pisteen päälle nähdäksesi sääaseman nimen.

Klikkaa sitten nähdäksesi säähavainnot ja -ennusteet.

Kartan vaihtaminen: klikkaa mustalla rastilla varustettuja vihreitä pisteitä, niin voit zoomata sisään; viivalla varustettua vihreää pistettä, niin voit zoomata ulos tai vihreitä nuolia, niin pääset viereisille kartoille.


METAR-TAF: